createdAt,value
2023-03-25T00:03:09.655Z,21.80
2023-03-25T00:08:13.880Z,21.80
2023-03-25T00:13:18.437Z,21.90
2023-03-25T00:18:23.179Z,21.80
2023-03-25T00:23:28.037Z,21.80
2023-03-25T00:28:36.489Z,21.80
2023-03-25T00:33:43.860Z,21.80
2023-03-25T00:38:49.649Z,21.80
2023-03-25T00:43:55.928Z,21.80
2023-03-25T00:49:01.301Z,21.70
2023-03-25T00:54:05.329Z,21.80
2023-03-25T00:59:11.808Z,21.70
2023-03-25T01:04:17.086Z,21.70
2023-03-25T01:09:22.019Z,21.70
2023-03-25T01:14:27.934Z,21.70
2023-03-25T01:19:31.907Z,21.80
2023-03-25T01:24:35.855Z,21.90
2023-03-25T01:29:39.921Z,21.90
2023-03-25T01:34:44.786Z,21.90
2023-03-25T01:39:48.670Z,22.30
2023-03-25T01:44:53.022Z,22.70
2023-03-25T01:49:57.052Z,22.60
2023-03-25T01:55:01.707Z,22.70
2023-03-25T02:00:09.718Z,22.70
2023-03-25T02:05:22.078Z,22.90
2023-03-25T02:10:26.197Z,23.00
2023-03-25T02:15:35.668Z,23.10
2023-03-25T02:20:54.719Z,23.10
2023-03-25T02:26:30.098Z,23.20
2023-03-25T02:31:55.535Z,23.50
2023-03-25T02:37:18.481Z,23.80
2023-03-25T02:42:38.448Z,23.70
2023-03-25T02:47:47.634Z,23.60
2023-03-25T02:52:56.043Z,23.60
2023-03-25T02:58:04.346Z,23.60
2023-03-25T03:03:09.390Z,23.50
2023-03-25T03:08:32.054Z,23.50
2023-03-25T03:13:52.072Z,23.40
2023-03-25T03:19:24.544Z,23.40
2023-03-25T03:24:37.209Z,23.30
2023-03-25T03:29:48.560Z,23.20
2023-03-25T03:35:38.724Z,23.00
2023-03-25T03:40:49.950Z,22.90
2023-03-25T03:45:58.929Z,22.80
2023-03-25T03:51:12.034Z,22.70
2023-03-25T03:56:23.686Z,22.70
2023-03-25T04:01:34.202Z,22.50
2023-03-25T04:06:57.271Z,22.50
2023-03-25T04:12:06.541Z,22.50
2023-03-25T04:17:10.991Z,22.60
2023-03-25T04:22:18.814Z,22.40
2023-03-25T04:27:30.152Z,22.40
2023-03-25T04:32:35.223Z,22.40
2023-03-25T04:37:39.194Z,22.30
2023-03-25T04:42:43.132Z,22.40
2023-03-25T04:47:48.657Z,22.50
2023-03-25T04:52:53.600Z,22.40
2023-03-25T04:57:58.619Z,22.30
2023-03-25T05:03:02.565Z,22.20
2023-03-25T05:08:06.766Z,22.10
2023-03-25T05:13:12.811Z,22.10
2023-03-25T05:18:17.996Z,22.00
2023-03-25T05:23:22.448Z,22.00
2023-03-25T05:28:26.581Z,22.00
2023-03-25T05:33:30.818Z,21.90
2023-03-25T05:38:35.362Z,21.90
2023-03-25T05:43:39.397Z,21.90
2023-03-25T05:48:43.321Z,21.90
2023-03-25T05:53:51.731Z,21.80
2023-03-25T05:58:56.825Z,21.80
2023-03-25T06:04:02.893Z,21.80
2023-03-25T06:09:08.188Z,21.80
2023-03-25T06:14:12.288Z,21.80
2023-03-25T06:19:18.887Z,21.80
2023-03-25T06:24:22.808Z,21.80
2023-03-25T06:29:27.558Z,21.80
2023-03-25T06:34:33.340Z,21.80
2023-03-25T06:39:42.178Z,21.90
2023-03-25T06:44:53.468Z,22.10
2023-03-25T06:50:17.963Z,22.40
2023-03-25T06:55:21.909Z,22.60
2023-03-25T07:00:27.369Z,22.70
2023-03-25T07:05:31.384Z,22.80
2023-03-25T07:10:35.641Z,22.80
2023-03-25T07:15:39.765Z,22.90
2023-03-25T07:20:46.371Z,23.00
2023-03-25T07:25:51.218Z,22.90
2023-03-25T07:30:55.849Z,23.00
2023-03-25T07:36:00.193Z,23.00
2023-03-25T07:41:08.782Z,23.10
2023-03-25T07:46:13.110Z,23.20
2023-03-25T07:51:17.623Z,23.30
2023-03-25T07:56:21.871Z,23.40
2023-03-25T08:01:27.353Z,23.40
2023-03-25T08:06:31.564Z,23.50
2023-03-25T08:11:35.901Z,23.60
2023-03-25T08:16:39.967Z,23.60
2023-03-25T08:21:45.599Z,23.70
2023-03-25T08:26:50.848Z,23.70
2023-03-25T08:31:54.927Z,23.70
2023-03-25T08:36:59.022Z,23.70
2023-03-25T08:42:03.456Z,23.70
2023-03-25T08:47:07.497Z,23.60
2023-03-25T08:52:11.748Z,23.50
2023-03-25T08:57:15.780Z,23.50
2023-03-25T09:02:19.794Z,23.40
2023-03-25T09:07:23.844Z,23.40
2023-03-25T09:12:27.978Z,23.30
2023-03-25T09:17:32.029Z,23.40
2023-03-25T09:22:37.485Z,23.30
2023-03-25T09:27:41.501Z,23.20
2023-03-25T09:32:46.014Z,23.10
2023-03-25T09:37:52.210Z,23.10
2023-03-25T09:43:23.074Z,23.10
2023-03-25T09:48:40.807Z,23.10
2023-03-25T09:53:51.730Z,23.10
2023-03-25T09:59:02.074Z,23.10
2023-03-25T10:04:15.771Z,23.10
2023-03-25T10:09:47.834Z,23.00
2023-03-25T10:15:04.533Z,23.00
2023-03-25T10:20:14.494Z,23.00
2023-03-25T10:25:23.368Z,23.10
2023-03-25T10:30:27.382Z,23.00
2023-03-25T10:35:37.694Z,23.00
2023-03-25T10:40:53.646Z,22.90
2023-03-25T10:46:14.730Z,23.00
2023-03-25T10:51:24.971Z,23.00
2023-03-25T10:56:45.690Z,23.00
2023-03-25T11:01:51.037Z,23.10
2023-03-25T11:06:59.796Z,23.30
2023-03-25T11:12:07.374Z,23.80
2023-03-25T11:17:21.545Z,23.90
2023-03-25T11:22:29.962Z,24.00
2023-03-25T11:27:46.069Z,23.60
2023-03-25T11:33:05.276Z,23.40
2023-03-25T11:38:24.064Z,23.40
2023-03-25T11:43:35.428Z,23.50
2023-03-25T11:48:42.238Z,23.50
2023-03-25T11:53:50.677Z,23.50
2023-03-25T11:59:00.041Z,23.60
2023-03-25T12:04:21.295Z,23.80
2023-03-25T12:09:30.279Z,23.50
2023-03-25T12:14:44.086Z,23.40
2023-03-25T12:20:27.884Z,23.40
2023-03-25T12:25:32.027Z,23.30
2023-03-25T12:31:08.011Z,23.30
2023-03-25T12:36:14.667Z,23.30
2023-03-25T12:41:34.067Z,23.30
2023-03-25T12:47:16.473Z,23.30
2023-03-25T12:52:36.572Z,23.20
2023-03-25T12:57:49.600Z,23.30
2023-03-25T13:03:20.261Z,23.30
2023-03-25T13:08:37.181Z,23.20
2023-03-25T13:13:44.521Z,23.10
2023-03-25T13:18:55.335Z,23.10
2023-03-25T13:24:07.587Z,23.10
2023-03-25T13:29:53.474Z,23.10
2023-03-25T13:35:03.025Z,23.00
2023-03-25T13:40:28.737Z,22.90
2023-03-25T13:45:59.628Z,22.90
2023-03-25T13:51:07.938Z,22.90
2023-03-25T13:56:39.505Z,22.90
2023-03-25T14:02:12.485Z,22.90
2023-03-25T14:07:35.871Z,22.90
2023-03-25T14:13:02.192Z,22.80
2023-03-25T14:18:14.010Z,22.80
2023-03-25T14:23:21.526Z,22.90
2023-03-25T14:28:41.100Z,22.80
2023-03-25T14:34:01.083Z,22.80
2023-03-25T14:39:11.235Z,22.80
2023-03-25T14:44:20.040Z,22.80
2023-03-25T14:49:30.515Z,22.70
2023-03-25T14:54:36.413Z,22.70
2023-03-25T14:59:54.123Z,22.70
2023-03-25T15:05:17.261Z,22.70
2023-03-25T15:10:29.751Z,22.80
2023-03-25T15:15:46.681Z,22.80
2023-03-25T15:20:51.187Z,22.70
2023-03-25T15:25:57.052Z,22.70
2023-03-25T15:31:23.707Z,22.70
2023-03-25T15:36:48.096Z,22.60
2023-03-25T15:42:21.396Z,22.60
2023-03-25T15:47:25.273Z,22.50
2023-03-25T15:52:57.813Z,22.50
2023-03-25T15:58:06.466Z,22.50
2023-03-25T16:03:21.398Z,22.50
2023-03-25T16:08:47.626Z,22.50
2023-03-25T16:14:12.851Z,22.60
2023-03-25T16:19:22.070Z,22.60
2023-03-25T16:24:30.082Z,22.60
2023-03-25T16:29:34.717Z,22.60
2023-03-25T16:34:41.935Z,22.60
2023-03-25T16:39:52.632Z,22.60
2023-03-25T16:44:56.727Z,22.40
2023-03-25T16:50:04.701Z,22.40
2023-03-25T16:55:31.094Z,22.40
2023-03-25T17:00:43.519Z,22.40
2023-03-25T17:06:23.865Z,22.30
2023-03-25T17:11:33.708Z,22.40
2023-03-25T17:16:40.506Z,22.40
2023-03-25T17:22:05.262Z,22.30
2023-03-25T17:27:35.118Z,22.20
2023-03-25T17:32:46.098Z,22.10
2023-03-25T17:37:50.938Z,22.10
2023-03-25T17:42:57.501Z,22.10
2023-03-25T17:48:02.297Z,22.10
2023-03-25T17:53:08.256Z,22.10
2023-03-25T17:58:15.428Z,22.10
2023-03-25T18:03:25.670Z,22.10
2023-03-25T18:08:30.764Z,22.10
2023-03-25T18:13:39.654Z,22.10
2023-03-25T18:18:46.877Z,22.00
2023-03-25T18:23:52.338Z,22.00
2023-03-25T18:28:57.337Z,22.00
2023-03-25T18:34:11.984Z,22.00
2023-03-25T18:39:22.808Z,22.00
2023-03-25T18:44:32.080Z,22.00
2023-03-25T18:49:40.864Z,22.10
2023-03-25T18:54:48.396Z,22.20
2023-03-25T18:59:53.836Z,22.10
2023-03-25T19:05:00.993Z,21.90
2023-03-25T19:10:07.216Z,22.00
2023-03-25T19:15:15.987Z,22.10
2023-03-25T19:20:24.983Z,22.30
2023-03-25T19:25:30.856Z,22.30
2023-03-25T19:30:38.909Z,22.30
2023-03-25T19:35:55.457Z,22.30
2023-03-25T19:41:10.606Z,22.30
2023-03-25T19:46:18.053Z,22.40
2023-03-25T19:51:25.489Z,22.40
2023-03-25T19:56:34.612Z,22.20
2023-03-25T20:01:40.946Z,22.20
2023-03-25T20:06:47.078Z,22.30
2023-03-25T20:11:53.130Z,22.20
2023-03-25T20:16:59.456Z,22.20
2023-03-25T20:22:15.138Z,22.20
2023-03-25T20:27:29.588Z,22.20
2023-03-25T20:32:41.259Z,22.20
2023-03-25T20:37:49.906Z,22.10
2023-03-25T20:42:56.965Z,22.10
2023-03-25T20:48:02.999Z,22.10
2023-03-25T20:53:10.107Z,22.00
2023-03-25T20:58:14.794Z,22.10
2023-03-25T21:03:21.531Z,22.00
2023-03-25T21:08:32.882Z,22.00
2023-03-25T21:13:38.038Z,22.00
2023-03-25T21:18:43.626Z,22.00
2023-03-25T21:23:49.884Z,22.00
2023-03-25T21:28:56.127Z,22.00
2023-03-25T21:34:02.384Z,21.90
2023-03-25T21:39:08.476Z,21.90
2023-03-25T21:44:16.158Z,21.90
2023-03-25T21:49:24.030Z,21.90
2023-03-25T21:54:29.847Z,21.90
2023-03-25T21:59:34.741Z,21.90
2023-03-25T22:04:39.572Z,21.80
2023-03-25T22:09:43.690Z,21.80
2023-03-25T22:14:48.118Z,21.80
2023-03-25T22:19:52.361Z,21.80
2023-03-25T22:24:56.293Z,21.70
2023-03-25T22:30:01.765Z,21.80
2023-03-25T22:35:07.295Z,21.80
2023-03-25T22:40:12.175Z,21.80
2023-03-25T22:45:16.723Z,22.00
2023-03-25T22:50:20.662Z,22.20
2023-03-25T22:55:26.504Z,22.30
2023-03-25T23:00:30.546Z,22.50
2023-03-25T23:05:35.853Z,22.60
2023-03-25T23:10:44.689Z,22.70
2023-03-25T23:15:48.605Z,22.70
2023-03-25T23:20:52.920Z,22.90
2023-03-25T23:26:06.839Z,22.90
2023-03-25T23:31:25.185Z,23.00
2023-03-25T23:36:37.780Z,23.10
2023-03-25T23:41:47.858Z,23.30
2023-03-25T23:47:00.908Z,23.40
2023-03-25T23:52:12.134Z,23.50
2023-03-25T23:57:16.581Z,23.40
